sensor_id;sensor_type;location;lat;lon;timestamp;P1;durP1;ratioP1;P2;durP2;ratioP2
16524;SDS011;8375;33.594;-117.718;2022-09-28T00:02:00;8.50;;;3.83;;
16524;SDS011;8375;33.594;-117.718;2022-09-28T00:04:29;8.38;;;3.85;;
16524;SDS011;8375;33.594;-117.718;2022-09-28T00:07:01;7.78;;;4.00;;
16524;SDS011;8375;33.594;-117.718;2022-09-28T00:09:30;7.90;;;3.60;;
16524;SDS011;8375;33.594;-117.718;2022-09-28T00:11:59;9.52;;;3.80;;
16524;SDS011;8375;33.594;-117.718;2022-09-28T00:14:28;8.95;;;3.58;;
16524;SDS011;8375;33.594;-117.718;2022-09-28T00:16:57;7.38;;;3.50;;
16524;SDS011;8375;33.594;-117.718;2022-09-28T00:19:26;10.35;;;4.22;;
16524;SDS011;8375;33.594;-117.718;2022-09-28T00:21:54;9.75;;;3.70;;
16524;SDS011;8375;33.594;-117.718;2022-09-28T00:24:25;9.88;;;3.60;;
16524;SDS011;8375;33.594;-117.718;2022-09-28T00:26:54;8.75;;;3.92;;
16524;SDS011;8375;33.594;-117.718;2022-09-28T00:29:26;9.15;;;3.63;;
16524;SDS011;8375;33.594;-117.718;2022-09-28T00:31:56;10.90;;;4.00;;
16524;SDS011;8375;33.594;-117.718;2022-09-28T00:34:27;10.00;;;4.32;;
16524;SDS011;8375;33.594;-117.718;2022-09-28T00:36:57;8.35;;;3.75;;
16524;SDS011;8375;33.594;-117.718;2022-09-28T00:39:28;13.68;;;4.20;;
16524;SDS011;8375;33.594;-117.718;2022-09-28T00:41:57;8.40;;;4.00;;
16524;SDS011;8375;33.594;-117.718;2022-09-28T00:47:17;11.02;;;4.25;;
16524;SDS011;8375;33.594;-117.718;2022-09-28T00:49:54;6.60;;;3.95;;
16524;SDS011;8375;33.594;-117.718;2022-09-28T00:52:27;11.90;;;4.30;;
16524;SDS011;8375;33.594;-117.718;2022-09-28T00:55:01;9.23;;;4.45;;
16524;SDS011;8375;33.594;-117.718;2022-09-28T00:57:33;12.40;;;4.28;;
16524;SDS011;8375;33.594;-117.718;2022-09-28T01:00:03;9.75;;;4.00;;
16524;SDS011;8375;33.594;-117.718;2022-09-28T01:02:33;10.70;;;4.07;;
16524;SDS011;8375;33.594;-117.718;2022-09-28T01:05:02;8.75;;;3.90;;
16524;SDS011;8375;33.594;-117.718;2022-09-28T01:07:34;10.45;;;4.35;;
16524;SDS011;8375;33.594;-117.718;2022-09-28T01:10:06;8.30;;;3.70;;
16524;SDS011;8375;33.594;-117.718;2022-09-28T01:12:36;11.38;;;3.75;;
16524;SDS011;8375;33.594;-117.718;2022-09-28T01:15:05;9.93;;;3.85;;
16524;SDS011;8375;33.594;-117.718;2022-09-28T01:17:37;11.18;;;3.50;;
16524;SDS011;8375;33.594;-117.718;2022-09-28T01:20:25;12.48;;;3.83;;
16524;SDS011;8375;33.594;-117.718;2022-09-28T01:29:33;10.82;;;3.42;;
16524;SDS011;8375;33.594;-117.718;2022-09-28T01:32:14;6.65;;;3.45;;
16524;SDS011;8375;33.594;-117.718;2022-09-28T01:34:51;12.50;;;3.53;;
16524;SDS011;8375;33.594;-117.718;2022-09-28T01:37:27;8.65;;;3.53;;
16524;SDS011;8375;33.594;-117.718;2022-09-28T01:40:01;7.68;;;3.50;;
16524;SDS011;8375;33.594;-117.718;2022-09-28T01:42:33;6.00;;;3.03;;
16524;SDS011;8375;33.594;-117.718;2022-09-28T01:45:08;7.38;;;3.25;;
16524;SDS011;8375;33.594;-117.718;2022-09-28T01:47:44;8.02;;;3.28;;
16524;SDS011;8375;33.594;-117.718;2022-09-28T01:50:15;7.72;;;3.83;;
16524;SDS011;8375;33.594;-117.718;2022-09-28T01:52:50;11.45;;;4.20;;
16524;SDS011;8375;33.594;-117.718;2022-09-28T01:55:27;8.93;;;4.15;;
16524;SDS011;8375;33.594;-117.718;2022-09-28T01:57:59;9.50;;;3.63;;
16524;SDS011;8375;33.594;-117.718;2022-09-28T02:00:34;10.75;;;3.92;;
16524;SDS011;8375;33.594;-117.718;2022-09-28T02:03:07;9.77;;;3.60;;
16524;SDS011;8375;33.594;-117.718;2022-09-28T02:05:41;8.57;;;3.78;;
16524;SDS011;8375;33.594;-117.718;2022-09-28T02:08:16;7.20;;;3.63;;
16524;SDS011;8375;33.594;-117.718;2022-09-28T02:10:52;6.55;;;3.35;;
16524;SDS011;8375;33.594;-117.718;2022-09-28T02:13:26;10.00;;;3.90;;
16524;SDS011;8375;33.594;-117.718;2022-09-28T02:16:02;7.35;;;3.42;;
16524;SDS011;8375;33.594;-117.718;2022-09-28T02:18:36;8.80;;;3.78;;
16524;SDS011;8375;33.594;-117.718;2022-09-28T02:21:06;8.70;;;3.58;;
16524;SDS011;8375;33.594;-117.718;2022-09-28T02:23:40;5.53;;;3.05;;
16524;SDS011;8375;33.594;-117.718;2022-09-28T02:26:18;10.25;;;3.95;;
16524;SDS011;8375;33.594;-117.718;2022-09-28T02:28:50;13.77;;;4.20;;
16524;SDS011;8375;33.594;-117.718;2022-09-28T02:31:21;7.75;;;3.45;;
16524;SDS011;8375;33.594;-117.718;2022-09-28T02:33:50;10.50;;;4.32;;
16524;SDS011;8375;33.594;-117.718;2022-09-28T02:36:22;13.50;;;4.50;;
16524;SDS011;8375;33.594;-117.718;2022-09-28T02:38:52;9.38;;;3.80;;
16524;SDS011;8375;33.594;-117.718;2022-09-28T02:41:29;9.48;;;4.05;;
16524;SDS011;8375;33.594;-117.718;2022-09-28T02:44:11;9.98;;;4.15;;
16524;SDS011;8375;33.594;-117.718;2022-09-28T02:46:54;6.32;;;3.72;;
16524;SDS011;8375;33.594;-117.718;2022-09-28T02:49:28;10.57;;;3.95;;
16524;SDS011;8375;33.594;-117.718;2022-09-28T02:52:17;8.40;;;4.40;;
16524;SDS011;8375;33.594;-117.718;2022-09-28T02:55:07;11.30;;;4.75;;
16524;SDS011;8375;33.594;-117.718;2022-09-28T02:57:47;9.98;;;4.32;;
16524;SDS011;8375;33.594;-117.718;2022-09-28T03:00:30;9.52;;;4.40;;
16524;SDS011;8375;33.594;-117.718;2022-09-28T03:03:07;11.45;;;4.40;;
16524;SDS011;8375;33.594;-117.718;2022-09-28T03:05:44;9.43;;;4.25;;
16524;SDS011;8375;33.594;-117.718;2022-09-28T03:08:21;7.68;;;3.55;;
16524;SDS011;8375;33.594;-117.718;2022-09-28T03:10:54;6.10;;;3.45;;
16524;SDS011;8375;33.594;-117.718;2022-09-28T03:13:26;9.07;;;3.75;;
16524;SDS011;8375;33.594;-117.718;2022-09-28T03:18:42;7.88;;;3.70;;
16524;SDS011;8375;33.594;-117.718;2022-09-28T03:21:11;8.52;;;3.58;;
16524;SDS011;8375;33.594;-117.718;2022-09-28T03:23:41;9.52;;;3.75;;
16524;SDS011;8375;33.594;-117.718;2022-09-28T03:26:10;11.30;;;3.85;;
16524;SDS011;8375;33.594;-117.718;2022-09-28T03:28:39;11.98;;;3.80;;
16524;SDS011;8375;33.594;-117.718;2022-09-28T03:31:08;9.07;;;3.70;;
16524;SDS011;8375;33.594;-117.718;2022-09-28T03:33:36;12.38;;;4.00;;
16524;SDS011;8375;33.594;-117.718;2022-09-28T03:36:07;8.57;;;4.03;;
16524;SDS011;8375;33.594;-117.718;2022-09-28T03:38:36;9.40;;;4.00;;
16524;SDS011;8375;33.594;-117.718;2022-09-28T03:41:05;11.07;;;4.53;;
16524;SDS011;8375;33.594;-117.718;2022-09-28T03:43:34;11.38;;;4.03;;
16524;SDS011;8375;33.594;-117.718;2022-09-28T03:46:02;8.88;;;4.18;;
16524;SDS011;8375;33.594;-117.718;2022-09-28T03:48:32;9.05;;;4.55;;
16524;SDS011;8375;33.594;-117.718;2022-09-28T03:51:02;12.02;;;4.97;;
16524;SDS011;8375;33.594;-117.718;2022-09-28T03:53:35;9.82;;;4.70;;
16524;SDS011;8375;33.594;-117.718;2022-09-28T03:56:04;9.85;;;4.50;;
16524;SDS011;8375;33.594;-117.718;2022-09-28T03:58:34;7.80;;;4.18;;
16524;SDS011;8375;33.594;-117.718;2022-09-28T04:01:04;13.80;;;3.90;;
16524;SDS011;8375;33.594;-117.718;2022-09-28T04:03:33;12.98;;;4.40;;
16524;SDS011;8375;33.594;-117.718;2022-09-28T04:06:02;10.88;;;4.55;;
16524;SDS011;8375;33.594;-117.718;2022-09-28T04:08:31;10.40;;;5.05;;
16524;SDS011;8375;33.594;-117.718;2022-09-28T04:11:01;12.18;;;4.95;;
16524;SDS011;8375;33.594;-117.718;2022-09-28T04:13:30;10.95;;;4.68;;
16524;SDS011;8375;33.594;-117.718;2022-09-28T04:15:59;11.38;;;4.53;;
16524;SDS011;8375;33.594;-117.718;2022-09-28T04:18:30;17.55;;;5.35;;
16524;SDS011;8375;33.594;-117.718;2022-09-28T04:21:00;10.25;;;4.63;;
16524;SDS011;8375;33.594;-117.718;2022-09-28T04:23:31;16.48;;;4.88;;
16524;SDS011;8375;33.594;-117.718;2022-09-28T04:26:02;10.93;;;4.88;;
16524;SDS011;8375;33.594;-117.718;2022-09-28T04:28:32;14.10;;;4.82;;
16524;SDS011;8375;33.594;-117.718;2022-09-28T04:31:18;11.77;;;5.22;;
16524;SDS011;8375;33.594;-117.718;2022-09-28T04:33:49;10.73;;;5.18;;
16524;SDS011;8375;33.594;-117.718;2022-09-28T04:36:18;16.45;;;5.38;;
16524;SDS011;8375;33.594;-117.718;2022-09-28T04:38:47;11.75;;;5.25;;
16524;SDS011;8375;33.594;-117.718;2022-09-28T04:41:17;12.75;;;5.68;;
16524;SDS011;8375;33.594;-117.718;2022-09-28T04:43:46;13.75;;;5.22;;
16524;SDS011;8375;33.594;-117.718;2022-09-28T04:46:15;12.00;;;5.55;;
16524;SDS011;8375;33.594;-117.718;2022-09-28T04:48:45;11.85;;;5.50;;
16524;SDS011;8375;33.594;-117.718;2022-09-28T04:51:13;16.55;;;5.20;;
16524;SDS011;8375;33.594;-117.718;2022-09-28T04:53:42;10.82;;;5.32;;
16524;SDS011;8375;33.594;-117.718;2022-09-28T04:56:11;11.95;;;5.78;;
16524;SDS011;8375;33.594;-117.718;2022-09-28T04:58:43;13.80;;;6.03;;
16524;SDS011;8375;33.594;-117.718;2022-09-28T05:01:13;12.90;;;5.63;;
16524;SDS011;8375;33.594;-117.718;2022-09-28T05:03:43;12.13;;;5.65;;
16524;SDS011;8375;33.594;-117.718;2022-09-28T05:06:13;13.70;;;5.93;;
16524;SDS011;8375;33.594;-117.718;2022-09-28T05:08:42;14.10;;;5.72;;
16524;SDS011;8375;33.594;-117.718;2022-09-28T05:11:12;18.13;;;6.38;;
16524;SDS011;8375;33.594;-117.718;2022-09-28T05:13:44;16.58;;;5.65;;
16524;SDS011;8375;33.594;-117.718;2022-09-28T05:16:14;17.10;;;5.55;;
16524;SDS011;8375;33.594;-117.718;2022-09-28T05:18:44;23.02;;;6.65;;
16524;SDS011;8375;33.594;-117.718;2022-09-28T05:21:13;18.58;;;6.22;;
16524;SDS011;8375;33.594;-117.718;2022-09-28T05:23:44;14.57;;;6.47;;
16524;SDS011;8375;33.594;-117.718;2022-09-28T05:26:14;13.82;;;6.63;;
16524;SDS011;8375;33.594;-117.718;2022-09-28T05:28:44;19.00;;;6.63;;
16524;SDS011;8375;33.594;-117.718;2022-09-28T05:31:13;14.50;;;6.07;;
16524;SDS011;8375;33.594;-117.718;2022-09-28T05:33:41;15.50;;;6.78;;
16524;SDS011;8375;33.594;-117.718;2022-09-28T05:36:10;16.60;;;7.03;;
16524;SDS011;8375;33.594;-117.718;2022-09-28T05:38:39;18.27;;;6.20;;
16524;SDS011;8375;33.594;-117.718;2022-09-28T05:41:07;19.20;;;7.85;;
16524;SDS011;8375;33.594;-117.718;2022-09-28T05:43:36;18.30;;;6.90;;
16524;SDS011;8375;33.594;-117.718;2022-09-28T05:46:07;27.48;;;7.65;;
16524;SDS011;8375;33.594;-117.718;2022-09-28T05:48:36;17.02;;;7.55;;
16524;SDS011;8375;33.594;-117.718;2022-09-28T05:51:07;18.02;;;7.25;;
16524;SDS011;8375;33.594;-117.718;2022-09-28T05:53:36;15.07;;;6.90;;
16524;SDS011;8375;33.594;-117.718;2022-09-28T05:56:05;15.98;;;6.78;;
16524;SDS011;8375;33.594;-117.718;2022-09-28T05:58:34;20.38;;;7.03;;
16524;SDS011;8375;33.594;-117.718;2022-09-28T06:01:02;18.88;;;7.05;;
16524;SDS011;8375;33.594;-117.718;2022-09-28T06:03:33;17.95;;;6.57;;
16524;SDS011;8375;33.594;-117.718;2022-09-28T06:06:02;17.83;;;6.57;;
16524;SDS011;8375;33.594;-117.718;2022-09-28T06:08:31;19.30;;;7.40;;
16524;SDS011;8375;33.594;-117.718;2022-09-28T06:11:00;18.73;;;7.25;;
16524;SDS011;8375;33.594;-117.718;2022-09-28T06:13:28;19.52;;;7.20;;
16524;SDS011;8375;33.594;-117.718;2022-09-28T06:15:57;18.92;;;7.40;;
16524;SDS011;8375;33.594;-117.718;2022-09-28T06:18:29;18.13;;;6.50;;
16524;SDS011;8375;33.594;-117.718;2022-09-28T06:20:59;19.52;;;6.93;;
16524;SDS011;8375;33.594;-117.718;2022-09-28T06:23:28;18.90;;;7.85;;
16524;SDS011;8375;33.594;-117.718;2022-09-28T06:25:57;18.58;;;7.90;;
16524;SDS011;8375;33.594;-117.718;2022-09-28T06:28:26;21.00;;;8.20;;
16524;SDS011;8375;33.594;-117.718;2022-09-28T06:30:57;19.30;;;8.40;;
16524;SDS011;8375;33.594;-117.718;2022-09-28T06:33:27;22.05;;;8.48;;
16524;SDS011;8375;33.594;-117.718;2022-09-28T06:35:59;17.50;;;7.55;;
16524;SDS011;8375;33.594;-117.718;2022-09-28T06:38:28;16.27;;;8.00;;
16524;SDS011;8375;33.594;-117.718;2022-09-28T06:40:57;17.92;;;7.30;;
16524;SDS011;8375;33.594;-117.718;2022-09-28T06:43:25;18.80;;;8.32;;
16524;SDS011;8375;33.594;-117.718;2022-09-28T06:45:54;17.90;;;8.57;;
16524;SDS011;8375;33.594;-117.718;2022-09-28T06:48:23;18.90;;;7.95;;
16524;SDS011;8375;33.594;-117.718;2022-09-28T06:50:51;21.65;;;9.02;;
16524;SDS011;8375;33.594;-117.718;2022-09-28T06:53:22;21.23;;;8.88;;
16524;SDS011;8375;33.594;-117.718;2022-09-28T06:55:51;20.08;;;8.27;;
16524;SDS011;8375;33.594;-117.718;2022-09-28T06:58:20;21.40;;;8.02;;
16524;SDS011;8375;33.594;-117.718;2022-09-28T07:00:51;19.25;;;8.20;;
16524;SDS011;8375;33.594;-117.718;2022-09-28T07:03:28;19.02;;;8.50;;
16524;SDS011;8375;33.594;-117.718;2022-09-28T07:05:58;18.98;;;8.52;;
16524;SDS011;8375;33.594;-117.718;2022-09-28T07:11:25;21.88;;;8.30;;
16524;SDS011;8375;33.594;-117.718;2022-09-28T07:13:55;19.90;;;8.27;;
16524;SDS011;8375;33.594;-117.718;2022-09-28T07:16:25;16.55;;;8.27;;
16524;SDS011;8375;33.594;-117.718;2022-09-28T07:18:55;20.73;;;8.52;;
16524;SDS011;8375;33.594;-117.718;2022-09-28T07:21:28;22.05;;;8.60;;
16524;SDS011;8375;33.594;-117.718;2022-09-28T07:24:00;19.25;;;8.35;;
16524;SDS011;8375;33.594;-117.718;2022-09-28T07:26:29;18.85;;;8.20;;
16524;SDS011;8375;33.594;-117.718;2022-09-28T07:28:59;20.55;;;8.93;;
16524;SDS011;8375;33.594;-117.718;2022-09-28T07:31:28;18.85;;;8.38;;
16524;SDS011;8375;33.594;-117.718;2022-09-28T07:33:58;21.13;;;8.15;;
16524;SDS011;8375;33.594;-117.718;2022-09-28T07:36:27;22.80;;;8.10;;
16524;SDS011;8375;33.594;-117.718;2022-09-28T07:38:56;20.52;;;8.60;;
16524;SDS011;8375;33.594;-117.718;2022-09-28T07:41:26;13.73;;;7.63;;
16524;SDS011;8375;33.594;-117.718;2022-09-28T07:44:00;15.35;;;8.15;;
16524;SDS011;8375;33.594;-117.718;2022-09-28T07:46:31;19.08;;;8.43;;
16524;SDS011;8375;33.594;-117.718;2022-09-28T07:49:00;20.85;;;8.35;;
16524;SDS011;8375;33.594;-117.718;2022-09-28T07:51:30;16.00;;;7.50;;
16524;SDS011;8375;33.594;-117.718;2022-09-28T07:53:59;16.97;;;7.97;;
16524;SDS011;8375;33.594;-117.718;2022-09-28T07:56:30;21.10;;;8.70;;
16524;SDS011;8375;33.594;-117.718;2022-09-28T07:58:59;20.48;;;8.43;;
16524;SDS011;8375;33.594;-117.718;2022-09-28T08:01:28;23.27;;;9.05;;
16524;SDS011;8375;33.594;-117.718;2022-09-28T08:03:57;20.10;;;8.43;;
16524;SDS011;8375;33.594;-117.718;2022-09-28T08:06:25;15.63;;;7.93;;
16524;SDS011;8375;33.594;-117.718;2022-09-28T08:08:57;19.83;;;8.73;;
16524;SDS011;8375;33.594;-117.718;2022-09-28T08:11:26;20.55;;;7.72;;
16524;SDS011;8375;33.594;-117.718;2022-09-28T08:13:56;23.98;;;9.25;;
16524;SDS011;8375;33.594;-117.718;2022-09-28T08:16:26;19.20;;;8.55;;
16524;SDS011;8375;33.594;-117.718;2022-09-28T08:18:55;22.23;;;8.88;;
16524;SDS011;8375;33.594;-117.718;2022-09-28T08:21:24;18.17;;;8.88;;
16524;SDS011;8375;33.594;-117.718;2022-09-28T08:24:10;21.52;;;9.05;;
16524;SDS011;8375;33.594;-117.718;2022-09-28T08:26:39;21.45;;;9.40;;
16524;SDS011;8375;33.594;-117.718;2022-09-28T08:29:10;23.13;;;9.70;;
16524;SDS011;8375;33.594;-117.718;2022-09-28T08:31:39;17.70;;;8.63;;
16524;SDS011;8375;33.594;-117.718;2022-09-28T08:34:08;19.42;;;9.18;;
16524;SDS011;8375;33.594;-117.718;2022-09-28T08:36:37;19.63;;;9.30;;
16524;SDS011;8375;33.594;-117.718;2022-09-28T08:39:06;20.77;;;9.03;;
16524;SDS011;8375;33.594;-117.718;2022-09-28T08:41:37;17.50;;;8.67;;
16524;SDS011;8375;33.594;-117.718;2022-09-28T08:44:15;17.27;;;8.77;;
16524;SDS011;8375;33.594;-117.718;2022-09-28T08:46:49;18.95;;;9.55;;
16524;SDS011;8375;33.594;-117.718;2022-09-28T08:49:23;20.63;;;9.10;;
16524;SDS011;8375;33.594;-117.718;2022-09-28T08:51:56;19.60;;;9.57;;
16524;SDS011;8375;33.594;-117.718;2022-09-28T08:54:33;20.53;;;9.67;;
16524;SDS011;8375;33.594;-117.718;2022-09-28T08:57:10;18.33;;;8.70;;
16524;SDS011;8375;33.594;-117.718;2022-09-28T08:59:48;16.50;;;8.70;;
16524;SDS011;8375;33.594;-117.718;2022-09-28T09:02:19;23.20;;;9.00;;
16524;SDS011;8375;33.594;-117.718;2022-09-28T09:04:52;22.80;;;9.77;;
16524;SDS011;8375;33.594;-117.718;2022-09-28T09:07:31;22.23;;;9.23;;
16524;SDS011;8375;33.594;-117.718;2022-09-28T09:10:34;20.37;;;9.57;;
16524;SDS011;8375;33.594;-117.718;2022-09-28T09:13:20;19.37;;;8.93;;
16524;SDS011;8375;33.594;-117.718;2022-09-28T09:16:07;20.27;;;9.53;;
16524;SDS011;8375;33.594;-117.718;2022-09-28T09:18:47;18.80;;;8.37;;
16524;SDS011;8375;33.594;-117.718;2022-09-28T09:21:26;17.90;;;9.40;;
16524;SDS011;8375;33.594;-117.718;2022-09-28T09:24:11;18.10;;;8.53;;
16524;SDS011;8375;33.594;-117.718;2022-09-28T09:26:54;22.80;;;9.17;;
16524;SDS011;8375;33.594;-117.718;2022-09-28T09:29:46;20.43;;;8.83;;
16524;SDS011;8375;33.594;-117.718;2022-09-28T09:32:30;16.57;;;8.73;;
16524;SDS011;8375;33.594;-117.718;2022-09-28T09:38:19;20.90;;;8.53;;
16524;SDS011;8375;33.594;-117.718;2022-09-28T09:41:02;20.30;;;9.10;;
16524;SDS011;8375;33.594;-117.718;2022-09-28T09:43:56;16.23;;;8.67;;
16524;SDS011;8375;33.594;-117.718;2022-09-28T09:46:50;18.33;;;8.80;;
16524;SDS011;8375;33.594;-117.718;2022-09-28T09:49:26;23.17;;;9.23;;
16524;SDS011;8375;33.594;-117.718;2022-09-28T09:52:05;17.57;;;9.00;;
16524;SDS011;8375;33.594;-117.718;2022-09-28T09:54:41;18.20;;;8.57;;
16524;SDS011;8375;33.594;-117.718;2022-09-28T09:57:16;17.10;;;8.93;;
16524;SDS011;8375;33.594;-117.718;2022-09-28T09:59:49;23.53;;;8.80;;
16524;SDS011;8375;33.594;-117.718;2022-09-28T10:02:21;20.57;;;9.23;;
16524;SDS011;8375;33.594;-117.718;2022-09-28T10:04:53;17.57;;;9.27;;
16524;SDS011;8375;33.594;-117.718;2022-09-28T10:07:28;19.17;;;10.07;;
16524;SDS011;8375;33.594;-117.718;2022-09-28T10:10:09;19.13;;;9.33;;
16524;SDS011;8375;33.594;-117.718;2022-09-28T10:12:40;22.70;;;10.37;;
16524;SDS011;8375;33.594;-117.718;2022-09-28T10:15:12;19.23;;;9.00;;
16524;SDS011;8375;33.594;-117.718;2022-09-28T10:17:45;21.20;;;9.63;;
16524;SDS011;8375;33.594;-117.718;2022-09-28T10:20:16;20.40;;;9.00;;
16524;SDS011;8375;33.594;-117.718;2022-09-28T10:22:45;23.23;;;9.60;;
16524;SDS011;8375;33.594;-117.718;2022-09-28T10:25:14;19.97;;;9.33;;
16524;SDS011;8375;33.594;-117.718;2022-09-28T10:27:44;19.63;;;9.90;;
16524;SDS011;8375;33.594;-117.718;2022-09-28T10:30:17;18.53;;;9.07;;
16524;SDS011;8375;33.594;-117.718;2022-09-28T10:32:48;14.37;;;8.40;;
16524;SDS011;8375;33.594;-117.718;2022-09-28T10:35:23;17.93;;;8.67;;
16524;SDS011;8375;33.594;-117.718;2022-09-28T10:37:54;21.83;;;9.63;;
16524;SDS011;8375;33.594;-117.718;2022-09-28T10:40:31;22.23;;;9.60;;
16524;SDS011;8375;33.594;-117.718;2022-09-28T10:43:06;19.37;;;8.90;;
16524;SDS011;8375;33.594;-117.718;2022-09-28T10:45:45;18.90;;;9.50;;
16524;SDS011;8375;33.594;-117.718;2022-09-28T10:48:15;20.53;;;9.20;;
16524;SDS011;8375;33.594;-117.718;2022-09-28T10:53:35;17.83;;;9.00;;
16524;SDS011;8375;33.594;-117.718;2022-09-28T10:56:05;19.17;;;9.57;;
16524;SDS011;8375;33.594;-117.718;2022-09-28T10:58:45;19.30;;;9.17;;
16524;SDS011;8375;33.594;-117.718;2022-09-28T11:01:15;17.93;;;9.13;;
16524;SDS011;8375;33.594;-117.718;2022-09-28T11:03:49;18.27;;;9.90;;
16524;SDS011;8375;33.594;-117.718;2022-09-28T11:06:25;19.67;;;9.60;;
16524;SDS011;8375;33.594;-117.718;2022-09-28T11:08:57;19.27;;;9.60;;
16524;SDS011;8375;33.594;-117.718;2022-09-28T11:11:29;18.67;;;9.80;;
16524;SDS011;8375;33.594;-117.718;2022-09-28T11:14:23;22.00;;;9.93;;
16524;SDS011;8375;33.594;-117.718;2022-09-28T11:19:45;15.90;;;9.13;;
16524;SDS011;8375;33.594;-117.718;2022-09-28T11:22:22;18.23;;;9.13;;
16524;SDS011;8375;33.594;-117.718;2022-09-28T11:27:45;18.73;;;9.53;;
16524;SDS011;8375;33.594;-117.718;2022-09-28T11:30:24;17.57;;;9.03;;
16524;SDS011;8375;33.594;-117.718;2022-09-28T11:32:55;18.70;;;9.73;;
16524;SDS011;8375;33.594;-117.718;2022-09-28T11:35:31;15.13;;;9.77;;
16524;SDS011;8375;33.594;-117.718;2022-09-28T11:38:16;18.43;;;9.97;;
16524;SDS011;8375;33.594;-117.718;2022-09-28T11:41:05;15.70;;;8.73;;
16524;SDS011;8375;33.594;-117.718;2022-09-28T11:43:54;18.33;;;9.93;;
16524;SDS011;8375;33.594;-117.718;2022-09-28T11:46:36;20.57;;;9.63;;
16524;SDS011;8375;33.594;-117.718;2022-09-28T11:49:15;17.30;;;9.60;;
16524;SDS011;8375;33.594;-117.718;2022-09-28T11:51:58;19.90;;;9.33;;
16524;SDS011;8375;33.594;-117.718;2022-09-28T11:54:33;19.87;;;8.90;;
16524;SDS011;8375;33.594;-117.718;2022-09-28T11:57:08;17.93;;;8.97;;
16524;SDS011;8375;33.594;-117.718;2022-09-28T11:59:50;14.60;;;8.87;;
16524;SDS011;8375;33.594;-117.718;2022-09-28T12:02:24;21.00;;;9.10;;
16524;SDS011;8375;33.594;-117.718;2022-09-28T12:05:00;17.13;;;9.33;;
16524;SDS011;8375;33.594;-117.718;2022-09-28T12:07:38;14.70;;;9.20;;
16524;SDS011;8375;33.594;-117.718;2022-09-28T12:10:13;21.00;;;9.07;;
16524;SDS011;8375;33.594;-117.718;2022-09-28T12:12:47;16.87;;;8.83;;
16524;SDS011;8375;33.594;-117.718;2022-09-28T12:15:22;16.87;;;9.00;;
16524;SDS011;8375;33.594;-117.718;2022-09-28T12:17:55;20.43;;;8.97;;
16524;SDS011;8375;33.594;-117.718;2022-09-28T12:20:31;21.73;;;9.57;;
16524;SDS011;8375;33.594;-117.718;2022-09-28T12:23:06;17.00;;;10.03;;
16524;SDS011;8375;33.594;-117.718;2022-09-28T12:25:43;23.07;;;10.00;;
16524;SDS011;8375;33.594;-117.718;2022-09-28T12:28:17;17.27;;;9.20;;
16524;SDS011;8375;33.594;-117.718;2022-09-28T12:30:55;18.57;;;9.00;;
16524;SDS011;8375;33.594;-117.718;2022-09-28T12:33:29;18.17;;;9.60;;
16524;SDS011;8375;33.594;-117.718;2022-09-28T12:36:01;17.10;;;9.70;;
16524;SDS011;8375;33.594;-117.718;2022-09-28T12:38:42;19.57;;;9.37;;
16524;SDS011;8375;33.594;-117.718;2022-09-28T12:41:27;18.83;;;9.47;;
16524;SDS011;8375;33.594;-117.718;2022-09-28T12:44:12;17.93;;;10.27;;
16524;SDS011;8375;33.594;-117.718;2022-09-28T12:47:07;15.37;;;10.00;;
16524;SDS011;8375;33.594;-117.718;2022-09-28T12:50:03;18.93;;;10.37;;
16524;SDS011;8375;33.594;-117.718;2022-09-28T12:52:46;20.13;;;10.17;;
16524;SDS011;8375;33.594;-117.718;2022-09-28T12:55:37;20.00;;;9.93;;
16524;SDS011;8375;33.594;-117.718;2022-09-28T12:58:37;20.93;;;10.43;;
16524;SDS011;8375;33.594;-117.718;2022-09-28T13:01:27;16.50;;;10.17;;
16524;SDS011;8375;33.594;-117.718;2022-09-28T13:07:11;20.40;;;9.47;;
16524;SDS011;8375;33.594;-117.718;2022-09-28T13:09:50;17.00;;;9.33;;
16524;SDS011;8375;33.594;-117.718;2022-09-28T13:12:30;20.87;;;10.33;;
16524;SDS011;8375;33.594;-117.718;2022-09-28T13:15:19;15.73;;;9.87;;
16524;SDS011;8375;33.594;-117.718;2022-09-28T13:18:09;17.73;;;9.87;;
16524;SDS011;8375;33.594;-117.718;2022-09-28T13:20:47;20.57;;;10.07;;
16524;SDS011;8375;33.594;-117.718;2022-09-28T13:23:28;21.60;;;10.43;;
16524;SDS011;8375;33.594;-117.718;2022-09-28T13:26:05;17.60;;;10.47;;
16524;SDS011;8375;33.594;-117.718;2022-09-28T13:28:42;16.73;;;10.47;;
16524;SDS011;8375;33.594;-117.718;2022-09-28T13:31:16;15.20;;;9.53;;
16524;SDS011;8375;33.594;-117.718;2022-09-28T13:33:48;16.37;;;9.50;;
16524;SDS011;8375;33.594;-117.718;2022-09-28T13:36:34;18.07;;;9.57;;
16524;SDS011;8375;33.594;-117.718;2022-09-28T13:39:32;22.33;;;10.10;;
16524;SDS011;8375;33.594;-117.718;2022-09-28T13:42:04;20.60;;;8.93;;
16524;SDS011;8375;33.594;-117.718;2022-09-28T13:44:40;20.30;;;9.90;;
16524;SDS011;8375;33.594;-117.718;2022-09-28T13:47:28;20.33;;;9.90;;
16524;SDS011;8375;33.594;-117.718;2022-09-28T13:50:21;22.17;;;10.50;;
16524;SDS011;8375;33.594;-117.718;2022-09-28T13:52:59;16.47;;;8.83;;
16524;SDS011;8375;33.594;-117.718;2022-09-28T13:55:39;18.30;;;9.23;;
16524;SDS011;8375;33.594;-117.718;2022-09-28T13:58:21;16.80;;;9.00;;
16524;SDS011;8375;33.594;-117.718;2022-09-28T14:00:54;17.57;;;8.83;;
16524;SDS011;8375;33.594;-117.718;2022-09-28T14:03:40;13.93;;;8.30;;
16524;SDS011;8375;33.594;-117.718;2022-09-28T14:06:20;17.67;;;8.47;;
16524;SDS011;8375;33.594;-117.718;2022-09-28T14:09:05;15.50;;;7.73;;
16524;SDS011;8375;33.594;-117.718;2022-09-28T14:11:58;15.20;;;7.50;;
16524;SDS011;8375;33.594;-117.718;2022-09-28T14:14:47;13.32;;;6.75;;
16524;SDS011;8375;33.594;-117.718;2022-09-28T14:23:15;13.35;;;6.57;;
16524;SDS011;8375;33.594;-117.718;2022-09-28T14:26:02;9.85;;;5.80;;
16524;SDS011;8375;33.594;-117.718;2022-09-28T14:28:49;13.63;;;6.97;;
16524;SDS011;8375;33.594;-117.718;2022-09-28T14:31:29;14.45;;;7.22;;
16524;SDS011;8375;33.594;-117.718;2022-09-28T14:33:59;10.10;;;5.63;;
16524;SDS011;8375;33.594;-117.718;2022-09-28T14:36:35;13.13;;;7.22;;
16524;SDS011;8375;33.594;-117.718;2022-09-28T14:39:26;15.93;;;6.97;;
16524;SDS011;8375;33.594;-117.718;2022-09-28T14:42:15;13.95;;;6.93;;
16524;SDS011;8375;33.594;-117.718;2022-09-28T14:54:25;14.45;;;8.55;;
16524;SDS011;8375;33.594;-117.718;2022-09-28T14:57:06;16.45;;;8.30;;
16524;SDS011;8375;33.594;-117.718;2022-09-28T14:59:42;12.60;;;7.95;;
16524;SDS011;8375;33.594;-117.718;2022-09-28T15:02:24;15.93;;;8.43;;
16524;SDS011;8375;33.594;-117.718;2022-09-28T15:04:59;18.45;;;9.05;;
16524;SDS011;8375;33.594;-117.718;2022-09-28T15:07:45;15.85;;;8.95;;
16524;SDS011;8375;33.594;-117.718;2022-09-28T15:10:27;16.58;;;8.63;;
16524;SDS011;8375;33.594;-117.718;2022-09-28T15:12:58;19.10;;;10.07;;
16524;SDS011;8375;33.594;-117.718;2022-09-28T15:15:32;16.55;;;9.70;;
16524;SDS011;8375;33.594;-117.718;2022-09-28T15:18:15;20.50;;;10.15;;
16524;SDS011;8375;33.594;-117.718;2022-09-28T15:21:03;16.17;;;8.95;;
16524;SDS011;8375;33.594;-117.718;2022-09-28T15:23:34;18.92;;;9.18;;
16524;SDS011;8375;33.594;-117.718;2022-09-28T15:26:05;16.63;;;8.90;;
16524;SDS011;8375;33.594;-117.718;2022-09-28T15:28:35;15.80;;;8.57;;
16524;SDS011;8375;33.594;-117.718;2022-09-28T15:31:14;19.35;;;9.30;;
16524;SDS011;8375;33.594;-117.718;2022-09-28T15:33:46;15.23;;;8.60;;
16524;SDS011;8375;33.594;-117.718;2022-09-28T15:36:32;19.02;;;8.68;;
16524;SDS011;8375;33.594;-117.718;2022-09-28T15:39:08;17.65;;;8.13;;